SBFZLPPT

Guest
Details From SBFZ - Pinto Martins
To LPPT - Lisboa
Flight Number -
Tags Generated
Created
Modified
Stats Distance 3,032 nm / 5,615 km
Max Altitude 0 ft / 0 m
Waypoints 3
Social Downloads 1
Likes 0
Share VATSIM

Download

Looking for another format? Having issues loading an existing format? Contact us
Advertisement - Login to hide

Notes

Generated

Route

SBFZ R2227 LPPT

ID Type Via Altitude Latitude Longitude Leg Dist Tot Dist Heading (true) Name
O SBFZ APT - 0 ft / 0 m -3.77334˚ -38.54365˚ - 0 nm - -
R2227 FIX - 0 ft / 0 m 38.76644˚ -9.14399˚ 3030 nm 3030 nm 30° / 39° -
O LPPT APT - 0 ft / 0 m 38.78624˚ -9.13721˚ 1 nm 3031 nm 15° / 15° -

Altitude Profile

Advertisement - Login to hide

Weather


0- 5 10 15 20 25 30 35+ Temperature / ° C

Clouds and Precipitation
Forecast for 2017-12-18 18:00 UTC. Updated 9 minutes ago

Ground ~20,000 ft ~40,000 ft Winds

SBFZ

Details ICAO SBFZ (FOR)
Name Pinto Martins
Region Brazil
Timezone America/Fortaleza (UTC-3.0)
Stats Elevation 82 ft / 25 m (AMSL)
Location -3.776283° -38.532556°
Runways 1
Magnetic Variation 21.125° W

METAR

SBFZ 181300Z 10020KT 9999 SCT030 32/22 Q1013

Decode

TAF

TAF SBFZ 181000Z 1812/1912 09016KT 9999 BKN023 TX31/1815Z TN26/1907Z BECMG 1815/1817 SCT025 BECMG 1821/1822 08009KT BECMG 1908/1910 09015KT BKN025 RMK PEU

Decode

Departure Runways

ID Width Length Bearing (true) Bearing (mag) Surface Threshold Offset Overrun Length
13 148 ft / 45 m 8,360 ft / 2,548 m 104.88° 126.01° Asphalt 0 ft / 0 m 195 ft / 59 m
31 148 ft / 45 m 8,360 ft / 2,548 m 284.88° 306.01° Asphalt 0 ft / 0 m 125 ft / 38 m

LPPT

Details ICAO LPPT (LIS)
Name Lisboa
Region Portugal
Timezone Europe/Lisbon (UTC+0.0)
Stats Elevation 374 ft / 114 m (AMSL)
Location 38.778559° -9.135146°
Runways 2
Magnetic Variation 2.363° W

METAR

LPPT 181300Z 07004KT 360V110 CAVOK 11/03 Q1032

Decode

TAF

TAF LPPT 181100Z 1812/1918 06008KT CAVOK BECMG 1815/1818 34007KT BECMG 1907/1909 06010KT

Decode

Destination Runways

ID Width Length Bearing (true) Bearing (mag) Surface Threshold Offset Overrun Length
03 148 ft / 45 m 12,518 ft / 3,815 m 22.70° 25.06° Asphalt 296 ft / 90 m 0 ft / 0 m
17 148 ft / 45 m 7,922 ft / 2,415 m 168.38° 170.74° Asphalt 0 ft / 0 m 0 ft / 0 m
21 148 ft / 45 m 12,518 ft / 3,815 m 202.72° 205.08° Asphalt 1,969 ft / 600 m 0 ft / 0 m
35 148 ft / 45 m 7,922 ft / 2,415 m 348.38° 350.74° Asphalt 492 ft / 150 m 0 ft / 0 m

Approach Navaids

Runway Type Ident Frequency Range Bearing (true) Bearing (mag) Slope Elevation
03 Localiser ILI 109.10 MHz 18 nm / 33 km 22.74° 25.10° - 335 ft / 102 m (AMSL)
03 Glidescope ILI 109.10 MHz 10 nm / 19 km 22.71° 25.07° 3.00° 419 ft / 128 m (AMSL)
03 DME ILI 109.10 MHz 18 nm / 33 km - - - 419 ft / 128 m (AMSL)
21 Localiser ILB 109.50 MHz 18 nm / 33 km 202.59° 204.95° - 335 ft / 102 m (AMSL)
21 Glidescope ILB 109.50 MHz 10 nm / 19 km 202.71° 205.07° 3.00° 423 ft / 129 m (AMSL)
21 DME ILB 109.50 MHz 18 nm / 33 km - - - 423 ft / 129 m (AMSL)

Popular Alternatives